Time;durP1;ratioP1;P1;durP2;ratioP2;P2;SDS_P1;SDS_P2;PMS_P1;PMS_P2;Temp;Humidity;BMP_temperature;BMP_pressure;BME280_temperature;BME280_humidity;BME280_pressure;Samples;Min_cycle;Max_cycle;Signal;HPM_P1;HPM_P2
2022/07/30 00:00:24;;;;;;;6.20;2.17;;;11.10;99.90;;;;;;5072200;28;20025;-70
2022/07/30 00:02:52;;;;;;;4.65;2.03;;;11.30;99.90;;;;;;5073426;28;20472;-70
2022/07/30 00:05:20;;;;;;;3.47;1.50;;;11.40;99.90;;;;;;5073302;28;20020;-70
2022/07/30 00:07:47;;;;;;;6.72;1.80;;;11.40;99.90;;;;;;5073438;28;20020;-70
2022/07/30 00:10:15;;;;;;;5.97;2.05;;;11.40;99.90;;;;;;5055348;28;20393;-70
2022/07/30 00:12:42;;;;;;;5.65;1.30;;;11.50;99.90;;;;;;5072342;28;20071;-70
2022/07/30 00:15:10;;;;;;;5.22;1.83;;;11.60;99.90;;;;;;5073245;28;20112;-70
2022/07/30 00:17:37;;;;;;;6.95;1.92;;;11.70;99.90;;;;;;5073287;28;20020;-70
2022/07/30 00:20:05;;;;;;;6.35;1.50;;;11.70;99.90;;;;;;5071791;28;20024;-70
2022/07/30 00:22:32;;;;;;;9.27;1.63;;;11.80;99.90;;;;;;5072738;28;20504;-70
2022/07/30 00:25:00;;;;;;;6.97;1.60;;;11.90;99.90;;;;;;5073050;28;20407;-70
2022/07/30 00:27:29;;;;;;;6.50;1.88;;;11.90;99.90;;;;;;5073315;28;20392;-70
2022/07/30 00:29:56;;;;;;;7.18;1.77;;;11.90;99.90;;;;;;5071577;28;20020;-70
2022/07/30 00:32:24;;;;;;;5.53;1.50;;;12.00;99.90;;;;;;5072522;28;20047;-70
2022/07/30 00:34:51;;;;;;;5.90;1.95;;;12.00;99.90;;;;;;5071655;28;20032;-70
2022/07/30 00:37:19;;;;;;;7.32;1.65;;;12.20;99.90;;;;;;5071657;28;20017;-70
2022/07/30 00:39:46;;;;;;;5.20;1.42;;;12.20;99.90;;;;;;5071997;28;20029;-71
2022/07/30 00:42:14;;;;;;;8.82;1.60;;;12.20;99.90;;;;;;5073133;28;20069;-71
2022/07/30 00:44:41;;;;;;;7.35;2.05;;;12.10;99.90;;;;;;5073281;28;20381;-70
2022/07/30 00:47:08;;;;;;;7.35;2.13;;;12.20;99.90;;;;;;5072959;28;20024;-70
2022/07/30 00:49:36;;;;;;;4.88;1.40;;;12.30;99.90;;;;;;5071525;28;20029;-70
2022/07/30 00:52:03;;;;;;;7.70;1.50;;;12.40;99.90;;;;;;5071456;28;20458;-71
2022/07/30 00:54:31;;;;;;;7.95;2.70;;;12.40;99.90;;;;;;5071556;28;20029;-72
2022/07/30 00:56:59;;;;;;;4.80;1.60;;;12.70;99.90;;;;;;5072794;28;20021;-70
2022/07/30 00:59:30;;;;;;;5.18;1.67;;;12.80;99.90;;;;;;5071495;28;20484;-71
2022/07/30 01:02:00;;;;;;;10.15;3.95;;;12.80;99.90;;;;;;5072833;28;20035;-70
2022/07/30 01:04:28;;;;;;;10.33;2.50;;;12.90;99.90;;;;;;5071480;28;20117;-71
2022/07/30 01:06:56;;;;;;;7.22;1.60;;;12.90;99.90;;;;;;5072994;28;20017;-72
2022/07/30 01:09:23;;;;;;;6.32;1.30;;;13.00;99.90;;;;;;5072828;28;20381;-71
2022/07/30 01:11:50;;;;;;;7.35;2.22;;;13.00;99.90;;;;;;5071633;28;20042;-71
2022/07/30 01:14:18;;;;;;;3.78;1.10;;;13.10;99.90;;;;;;5072708;28;20063;-70
2022/07/30 01:16:45;;;;;;;3.90;0.95;;;13.20;99.90;;;;;;5072685;28;20025;-71
2022/07/30 01:19:47;;;;;;;6.90;1.67;;;13.30;99.90;;;;;;5071409;28;20017;-71
2022/07/30 01:22:29;;;;;;;6.78;1.65;;;13.30;99.90;;;;;;5072707;28;20112;-71
2022/07/30 01:24:56;;;;;;;3.45;1.10;;;13.50;99.90;;;;;;5073173;28;20310;-71
2022/07/30 01:27:25;;;;;;;7.93;1.80;;;13.60;99.90;;;;;;5072564;28;20614;-71
2022/07/30 01:29:54;;;;;;;7.45;2.10;;;13.80;99.90;;;;;;5071382;28;20027;-71
2022/07/30 01:32:23;;;;;;;6.40;1.42;;;14.00;99.90;;;;;;5072479;28;20099;-71
2022/07/30 01:34:57;;;;;;;3.95;1.23;;;14.10;99.90;;;;;;5073905;28;20047;-71
2022/07/30 01:37:29;;;;;;;7.90;2.15;;;14.00;99.90;;;;;;5076374;28;20032;-72
2022/07/30 01:39:58;;;;;;;5.13;1.13;;;14.00;99.90;;;;;;5076350;28;20021;-71
2022/07/30 01:42:28;;;;;;;7.10;1.23;;;14.00;99.90;;;;;;5074993;28;20028;-71
2022/07/30 01:44:57;;;;;;;3.75;1.10;;;13.90;99.90;;;;;;5076225;28;20021;-71
2022/07/30 01:47:27;;;;;;;4.13;1.50;;;14.00;99.90;;;;;;5074910;28;20032;-71
2022/07/30 01:49:56;;;;;;;6.32;0.95;;;14.20;99.90;;;;;;5074917;28;20039;-71
2022/07/30 01:52:25;;;;;;;6.47;1.20;;;14.30;99.90;;;;;;5074764;28;20448;-71
2022/07/30 01:54:57;;;;;;;4.15;1.02;;;14.40;99.90;;;;;;5076211;28;20039;-71
2022/07/30 01:57:26;;;;;;;4.55;0.93;;;14.50;99.90;;;;;;5058463;28;20115;-70
2022/07/30 02:00:00;;;;;;;4.80;1.20;;;14.50;99.90;;;;;;5076236;28;20537;-71
2022/07/30 02:02:28;;;;;;;5.07;1.02;;;14.50;99.90;;;;;;5074643;28;20024;-71
2022/07/30 02:04:55;;;;;;;5.32;1.00;;;14.60;99.90;;;;;;5074598;28;20055;-72
2022/07/30 02:07:41;;;;;;;4.45;0.80;;;14.80;99.90;;;;;;5075950;28;20025;-71
2022/07/30 02:10:25;;;;;;;3.95;0.80;;;15.00;99.90;;;;;;5074640;28;20035;-71
2022/07/30 02:12:55;;;;;;;3.28;0.82;;;15.10;99.90;;;;;;5075829;28;20049;-71
2022/07/30 02:15:30;;;;;;;;;;;15.00;99.90;;;;;;5074997;28;20028;-70
2022/07/30 02:18:08;;;;;;;3.65;1.13;;;15.10;99.90;;;;;;5075739;28;19905;-71
2022/07/30 02:20:36;;;;;;;4.50;0.88;;;15.20;99.90;;;;;;5075952;28;20110;-71
2022/07/30 02:23:09;;;;;;;3.13;0.57;;;15.10;99.90;;;;;;5074050;28;20093;-72
2022/07/30 02:25:43;;;;;;;2.42;0.50;;;15.10;99.80;;;;;;5075442;28;20029;-72
2022/07/30 02:28:14;;;;;;;3.40;0.80;;;15.10;98.30;;;;;;5074225;28;20059;-71
2022/07/30 02:30:48;;;;;;;2.13;0.70;;;15.30;98.60;;;;;;5075478;28;20042;-72
2022/07/30 02:33:19;;;;;;;3.83;1.00;;;15.40;98.00;;;;;;5074300;28;20029;-71
2022/07/30 02:35:47;;;;;;;3.75;0.95;;;15.40;97.40;;;;;;5075852;28;20473;-71
2022/07/30 02:38:18;;;;;;;2.78;0.88;;;15.50;98.70;;;;;;5075219;28;20546;-71
2022/07/30 02:40:45;;;;;;;;;;;15.50;98.50;;;;;;5074484;28;20020;-71
2022/07/30 02:43:20;;;;;;;3.25;0.70;;;15.50;98.10;;;;;;5073904;28;19904;-71
2022/07/30 02:45:48;;;;;;;1.08;0.38;;;15.60;98.50;;;;;;5074885;28;20020;-71
2022/07/30 02:48:17;;;;;;;3.45;0.60;;;15.70;97.90;;;;;;5074948;28;20153;-71
2022/07/30 02:50:45;;;;;;;3.15;0.98;;;15.60;98.00;;;;;;5074915;28;20028;-72
2022/07/30 02:53:15;;;;;;;2.90;0.88;;;15.50;98.00;;;;;;5074595;28;20134;-72
2022/07/30 02:55:44;;;;;;;5.57;1.33;;;15.70;97.90;;;;;;5074921;28;20024;-72
2022/07/30 02:58:19;;;;;;;3.53;0.80;;;15.80;99.10;;;;;;5073743;28;20385;-72
2022/07/30 03:00:48;;;;;;;4.25;0.65;;;15.80;97.90;;;;;;5074785;28;20070;-71
2022/07/30 03:03:17;;;;;;;2.92;0.70;;;15.60;98.30;;;;;;5073643;28;20032;-72
2022/07/30 03:05:46;;;;;;;2.78;0.80;;;15.70;98.90;;;;;;5057172;28;20082;-72
2022/07/30 03:08:16;;;;;;;3.75;0.60;;;15.70;98.80;;;;;;5057047;28;20098;-72
2022/07/30 03:10:45;;;;;;;3.13;0.60;;;15.90;98.40;;;;;;5073602;28;20036;-73
2022/07/30 03:13:14;;;;;;;3.47;0.60;;;15.90;98.20;;;;;;5073264;28;20050;-72
2022/07/30 03:15:47;;;;;;;3.05;0.65;;;15.80;98.50;;;;;;5073195;28;20078;-72
2022/07/30 03:18:17;;;;;;;2.47;0.77;;;16.00;98.70;;;;;;5074545;28;20020;-72
2022/07/30 03:20:50;;;;;;;5.93;1.10;;;15.70;97.90;;;;;;5073408;28;20098;-72
2022/07/30 03:23:20;;;;;;;3.70;1.00;;;15.90;98.90;;;;;;5074890;28;20016;-72
2022/07/30 03:26:01;;;;;;;3.60;0.90;;;15.90;98.90;;;;;;5073683;28;20031;-71
2022/07/30 03:28:31;;;;;;;2.90;0.70;;;16.00;99.90;;;;;;5074380;28;20020;-74
2022/07/30 03:31:00;;;;;;;4.07;0.80;;;16.30;99.90;;;;;;5074613;28;20044;-72
2022/07/30 03:33:28;;;;;;;6.93;2.70;;;16.20;98.00;;;;;;5073179;28;20035;-73
2022/07/30 03:35:57;;;;;;;4.13;0.93;;;16.40;99.90;;;;;;5074068;28;20026;-71
2022/07/30 03:38:28;;;;;;;2.30;0.70;;;16.40;98.10;;;;;;5074292;28;20028;-69
2022/07/30 03:40:56;;;;;;;3.78;0.60;;;16.20;97.70;;;;;;5073960;28;20025;-69
2022/07/30 03:43:25;;;;;;;2.25;0.50;;;16.20;98.80;;;;;;5072646;28;20032;-70
2022/07/30 03:45:54;;;;;;;2.58;0.68;;;16.40;98.70;;;;;;5072580;28;20388;-71
2022/07/30 03:48:22;;;;;;;3.40;0.73;;;16.50;98.10;;;;;;5072993;28;20024;-69
2022/07/30 03:50:50;;;;;;;2.53;0.43;;;16.60;98.10;;;;;;5072733;28;20497;-71
2022/07/30 03:53:22;;;;;;;3.67;0.57;;;16.60;97.40;;;;;;5073499;28;20134;-71
2022/07/30 03:55:51;;;;;;;3.42;0.52;;;16.50;97.60;;;;;;5072324;28;20043;-70
2022/07/30 03:58:19;;;;;;;4.00;0.80;;;16.50;97.80;;;;;;5073000;28;20013;-71
2022/07/30 04:00:50;;;;;;;3.78;0.60;;;16.30;97.60;;;;;;5055920;28;20024;-72
2022/07/30 04:03:28;;;;;;;1.88;0.40;;;16.40;97.80;;;;;;5055934;28;20028;-72
2022/07/30 04:05:56;;;;;;;2.70;0.60;;;16.30;97.70;;;;;;5073667;28;20483;-70
2022/07/30 04:08:23;;;;;;;2.70;0.68;;;16.30;98.40;;;;;;5073566;28;20028;-70
2022/07/30 04:10:52;;;;;;;3.08;0.75;;;16.10;98.00;;;;;;5073565;28;20047;-71
2022/07/30 04:13:20;;;;;;;2.88;0.80;;;15.80;98.50;;;;;;5072190;28;20115;-71
2022/07/30 04:16:08;;;;;;;1.70;0.52;;;15.60;98.70;;;;;;5073796;28;20078;-71
2022/07/30 04:18:42;;;;;;;4.13;0.73;;;15.70;99.10;;;;;;5073543;28;20020;-70
2022/07/30 04:21:12;;;;;;;2.78;0.60;;;16.00;99.40;;;;;;5073625;28;20431;-73
2022/07/30 04:23:40;;;;;;;;;;;16.20;98.30;;;;;;5073265;28;20029;-72
2022/07/30 04:26:08;;;;;;;2.15;0.55;;;16.50;99.40;;;;;;5072088;28;19905;-72
2022/07/30 04:28:39;;;;;;;3.72;0.95;;;16.50;99.50;;;;;;5055301;28;20481;-71
2022/07/30 04:31:06;;;;;;;4.07;0.73;;;16.60;97.70;;;;;;5072048;28;20021;-71
2022/07/30 04:33:33;;;;;;;2.10;0.70;;;16.40;98.00;;;;;;5073318;28;20202;-72
2022/07/30 04:36:08;;;;;;;3.67;1.13;;;16.20;98.20;;;;;;5071878;28;20478;-72
2022/07/30 04:38:36;;;;;;;2.20;0.52;;;16.00;98.00;;;;;;5072182;28;20023;-72
2022/07/30 04:41:04;;;;;;;5.03;0.80;;;15.70;99.50;;;;;;5073276;28;20047;-72
2022/07/30 04:43:36;;;;;;;2.20;0.50;;;15.80;99.10;;;;;;5072243;28;20546;-72
2022/07/30 04:46:04;;;;;;;1.70;0.60;;;15.80;98.50;;;;;;5073274;28;20052;-73
2022/07/30 04:48:31;;;;;;;4.20;0.52;;;15.80;99.10;;;;;;5072099;28;20060;-72
2022/07/30 04:51:03;;;;;;;2.67;0.60;;;16.00;98.70;;;;;;5073190;28;20029;-70
2022/07/30 04:53:32;;;;;;;3.53;0.80;;;15.90;98.60;;;;;;5073030;28;20047;-71
2022/07/30 04:56:01;;;;;;;3.90;0.70;;;15.90;98.90;;;;;;5071924;28;20025;-71
2022/07/30 04:58:31;;;;;;;2.65;0.43;;;15.80;99.40;;;;;;5073119;28;20114;-72
2022/07/30 05:00:59;;;;;;;1.52;0.40;;;15.80;99.00;;;;;;5072957;28;20073;-73
2022/07/30 05:03:28;;;;;;;3.33;0.80;;;15.60;99.30;;;;;;5071055;28;20029;-72
2022/07/30 05:05:57;;;;;;;1.25;0.28;;;15.60;99.50;;;;;;5071683;28;20028;-72
2022/07/30 05:08:25;;;;;;;2.45;1.13;;;15.50;99.80;;;;;;5072101;28;20037;-72
2022/07/30 05:10:53;;;;;;;2.05;0.57;;;15.40;99.70;;;;;;5077244;28;20017;-72
2022/07/30 05:13:20;;;;;;;2.58;0.43;;;15.30;99.60;;;;;;5076893;28;20024;-73
2022/07/30 05:15:48;;;;;;;1.15;0.52;;;15.30;99.90;;;;;;5075814;28;20024;-73
2022/07/30 05:18:15;;;;;;;2.72;0.50;;;15.30;99.90;;;;;;5077284;28;20036;-73
2022/07/30 05:20:43;;;;;;;2.50;0.55;;;15.30;99.90;;;;;;5075883;28;20031;-73
2022/07/30 05:23:10;;;;;;;2.28;0.40;;;15.20;99.90;;;;;;5059148;28;20039;-73
2022/07/30 05:25:37;;;;;;;2.60;0.50;;;15.20;99.90;;;;;;5077147;28;20519;-74
2022/07/30 05:28:05;;;;;;;2.42;0.43;;;15.20;99.90;;;;;;5077144;28;20056;-72
2022/07/30 05:30:32;;;;;;;1.85;0.45;;;15.20;99.90;;;;;;5076892;28;20484;-73
2022/07/30 05:32:59;;;;;;;1.95;0.63;;;15.30;99.90;;;;;;5076912;28;20467;-73
2022/07/30 05:35:27;;;;;;;3.83;0.57;;;15.20;99.90;;;;;;5076878;28;20048;-74
2022/07/30 05:37:55;;;;;;;3.28;0.60;;;15.20;99.90;;;;;;5076760;28;20025;-73
2022/07/30 05:40:22;;;;;;;1.98;0.57;;;15.20;99.90;;;;;;5058719;28;20119;-74
2022/07/30 05:42:49;;;;;;;2.35;0.57;;;15.10;99.90;;;;;;5076621;28;20036;-73
2022/07/30 05:45:17;;;;;;;1.30;0.60;;;14.90;99.90;;;;;;5076810;28;20149;-73
2022/07/30 05:47:44;;;;;;;2.72;0.80;;;14.90;99.90;;;;;;5075227;28;20032;-74
2022/07/30 05:50:12;;;;;;;3.67;0.63;;;14.90;99.90;;;;;;5058539;28;20040;-73
2022/07/30 05:52:39;;;;;;;2.38;0.45;;;14.80;99.90;;;;;;5076232;28;20056;-74
2022/07/30 05:55:07;;;;;;;2.78;0.60;;;14.80;99.90;;;;;;5075088;28;20366;-73
2022/07/30 05:57:40;;;;;;;3.83;1.10;;;14.70;99.90;;;;;;5076507;28;20017;-73
2022/07/30 06:00:10;;;;;;;5.63;1.50;;;14.60;99.90;;;;;;5076421;28;20508;-71
2022/07/30 06:02:39;;;;;;;4.97;1.17;;;14.50;99.90;;;;;;5076362;28;20020;-73
2022/07/30 06:05:07;;;;;;;4.45;1.00;;;14.50;99.90;;;;;;5075176;28;20625;-73
2022/07/30 06:07:35;;;;;;;4.72;0.95;;;14.40;99.90;;;;;;5074777;28;20028;-73
2022/07/30 06:10:03;;;;;;;5.35;1.35;;;14.30;99.90;;;;;;5058344;28;20105;-73
2022/07/30 06:12:31;;;;;;;8.52;1.45;;;14.20;99.90;;;;;;5074761;28;20032;-73
2022/07/30 06:14:58;;;;;;;5.93;1.10;;;14.10;99.90;;;;;;5075925;28;20021;-74
2022/07/30 06:17:26;;;;;;;4.65;0.98;;;14.00;99.90;;;;;;5076062;28;20025;-72
2022/07/30 06:19:53;;;;;;;5.50;1.48;;;13.90;99.90;;;;;;5074035;28;20068;-72
2022/07/30 06:22:20;;;;;;;5.32;1.40;;;13.80;99.90;;;;;;5074146;28;20020;-72
2022/07/30 06:24:47;;;;;;;6.70;1.20;;;13.80;99.90;;;;;;5075654;28;20103;-72
2022/07/30 06:27:17;;;;;;;4.73;1.50;;;13.70;99.90;;;;;;5075912;28;20028;-72
2022/07/30 06:29:46;;;;;;;7.00;1.05;;;13.60;99.90;;;;;;5074097;28;20761;-72
2022/07/30 06:32:14;;;;;;;5.47;1.30;;;13.50;99.90;;;;;;5058313;28;20048;-73
2022/07/30 06:34:41;;;;;;;6.60;1.40;;;13.50;99.90;;;;;;5076398;28;20103;-74
2022/07/30 06:37:09;;;;;;;3.97;0.80;;;13.50;99.90;;;;;;5074901;28;20108;-75
2022/07/30 06:39:36;;;;;;;5.30;1.45;;;13.40;99.90;;;;;;5074342;28;20031;-77
2022/07/30 06:42:04;;;;;;;4.60;1.08;;;13.30;99.90;;;;;;5074637;28;20032;-76
2022/07/30 06:44:31;;;;;;;5.03;1.23;;;13.30;99.90;;;;;;5076547;28;20546;-76
2022/07/30 06:46:58;;;;;;;8.15;1.58;;;13.20;99.90;;;;;;5074925;28;20480;-76
2022/07/30 06:49:26;;;;;;;9.43;1.77;;;13.20;99.90;;;;;;5074911;28;20419;-78
2022/07/30 06:51:54;;;;;;;4.63;1.17;;;13.00;99.90;;;;;;5076394;28;20056;-76
2022/07/30 06:54:21;;;;;;;3.90;0.90;;;12.90;99.90;;;;;;5074510;28;20078;-76
2022/07/30 06:56:48;;;;;;;4.68;1.10;;;12.80;99.90;;;;;;5075578;28;20016;-76
2022/07/30 06:59:16;;;;;;;5.78;1.40;;;12.60;99.90;;;;;;5074589;28;20031;-76
2022/07/30 07:01:44;;;;;;;2.78;1.30;;;12.60;99.90;;;;;;5076293;28;20025;-76
2022/07/30 07:04:11;;;;;;;6.80;1.23;;;12.50;99.90;;;;;;5076351;28;20112;-75
2022/07/30 07:06:38;;;;;;;4.32;1.40;;;12.60;99.90;;;;;;5074271;28;20427;-75
2022/07/30 07:09:06;;;;;;;7.10;1.20;;;12.50;99.90;;;;;;5075658;28;20017;-76
2022/07/30 07:11:33;;;;;;;5.63;1.42;;;12.50;99.90;;;;;;5076025;28;20062;-77
2022/07/30 07:14:00;;;;;;;5.20;1.33;;;12.40;99.90;;;;;;5074399;28;20393;-77
2022/07/30 07:16:29;;;;;;;4.65;1.75;;;12.40;99.90;;;;;;5075884;28;20012;-77
2022/07/30 07:18:56;;;;;;;6.68;1.30;;;12.30;99.90;;;;;;5075877;28;20028;-76
2022/07/30 07:21:25;;;;;;;5.95;1.30;;;12.40;99.90;;;;;;5075237;28;20029;-76
2022/07/30 07:23:52;;;;;;;6.65;1.60;;;12.40;99.90;;;;;;5075309;28;20032;-77
2022/07/30 07:26:20;;;;;;;4.32;1.25;;;12.30;99.90;;;;;;5073566;28;20028;-77
2022/07/30 07:28:47;;;;;;;5.07;1.58;;;12.30;99.90;;;;;;5074842;28;20031;-77
2022/07/30 07:31:14;;;;;;;5.65;1.63;;;12.30;99.90;;;;;;5073691;28;20506;-77
2022/07/30 07:33:42;;;;;;;7.10;2.40;;;12.20;99.90;;;;;;5074642;28;20469;-77
2022/07/30 07:36:09;;;;;;;6.47;2.00;;;12.10;99.90;;;;;;5073608;28;20020;-76
2022/07/30 07:38:36;;;;;;;6.63;1.65;;;12.00;99.90;;;;;;5074694;28;20020;-76
2022/07/30 07:41:04;;;;;;;8.45;2.20;;;11.90;99.90;;;;;;5074694;28;20073;-77
2022/07/30 07:43:32;;;;;;;7.40;1.77;;;11.80;99.90;;;;;;5073332;28;20148;-77
2022/07/30 07:46:03;;;;;;;4.15;1.65;;;11.60;99.90;;;;;;5073043;28;20103;-77
2022/07/30 07:48:30;;;;;;;7.07;1.30;;;11.50;99.90;;;;;;5073211;28;20507;-76
2022/07/30 07:50:58;;;;;;;5.88;1.85;;;11.30;99.90;;;;;;5072984;28;20028;-76
2022/07/30 07:53:25;;;;;;;8.23;2.97;;;11.30;99.90;;;;;;5073107;28;20075;-77
2022/07/30 07:55:53;;;;;;;5.03;2.47;;;11.20;99.90;;;;;;5073320;28;20027;-76
2022/07/30 07:58:20;;;;;;;6.07;2.05;;;11.10;99.90;;;;;;5072976;28;20389;-75
2022/07/30 08:00:50;;;;;;;5.43;1.92;;;11.00;99.90;;;;;;5073802;28;20031;-75
2022/07/30 08:03:18;;;;;;;4.38;2.00;;;11.00;99.90;;;;;;5074517;28;20059;-76
2022/07/30 08:05:48;;;;;;;5.30;2.00;;;10.90;99.90;;;;;;5073501;28;20042;-76
2022/07/30 08:08:16;;;;;;;7.30;2.30;;;10.80;99.90;;;;;;5072891;28;20047;-74
2022/07/30 08:10:43;;;;;;;9.02;3.17;;;10.80;99.90;;;;;;5073074;28;20021;-74
2022/07/30 08:13:10;;;;;;;7.05;2.40;;;10.70;99.90;;;;;;5073996;28;20024;-75
2022/07/30 08:15:37;;;;;;;7.32;3.08;;;10.60;99.90;;;;;;5074219;28;20016;-75
2022/07/30 08:18:06;;;;;;;10.02;4.30;;;10.60;99.90;;;;;;5073994;28;20017;-75
2022/07/30 08:20:34;;;;;;;7.40;3.53;;;10.60;99.90;;;;;;5073903;28;20029;-75
2022/07/30 08:23:02;;;;;;;7.45;3.75;;;10.60;99.90;;;;;;5073947;28;20021;-74
2022/07/30 08:25:33;;;;;;;8.35;3.60;;;10.60;99.90;;;;;;5072657;28;20119;-74
2022/07/30 08:28:02;;;;;;;23.92;10.90;;;10.50;99.90;;;;;;5072776;28;20028;-74
2022/07/30 08:30:30;;;;;;;14.57;6.63;;;10.40;99.90;;;;;;5073941;28;20031;-74
2022/07/30 08:32:57;;;;;;;22.08;14.07;;;10.40;99.90;;;;;;5073714;28;20024;-74
2022/07/30 08:35:25;;;;;;;8.20;4.78;;;10.40;99.90;;;;;;5074251;28;20465;-74
2022/07/30 08:37:52;;;;;;;18.75;8.73;;;10.30;99.90;;;;;;5072872;28;20021;-74
2022/07/30 08:40:20;;;;;;;14.52;8.13;;;10.30;99.90;;;;;;5073923;28;20032;-75
2022/07/30 08:42:47;;;;;;;19.98;11.60;;;10.20;99.90;;;;;;5074071;28;20021;-75
2022/07/30 08:45:17;;;;;;;22.98;9.27;;;10.20;99.90;;;;;;5073460;28;20423;-73
2022/07/30 08:47:47;;;;;;;15.25;7.90;;;10.20;99.90;;;;;;5072515;28;20036;-74
2022/07/30 08:50:14;;;;;;;18.65;11.02;;;10.10;99.90;;;;;;5072317;28;20035;-74
2022/07/30 08:52:43;;;;;;;14.15;7.55;;;10.10;99.90;;;;;;5072030;28;20496;-74
2022/07/30 08:55:14;;;;;;;18.88;9.68;;;10.10;99.90;;;;;;5056463;28;20135;-74
2022/07/30 08:57:43;;;;;;;17.75;8.93;;;10.10;99.90;;;;;;5072322;28;20021;-74
2022/07/30 09:00:13;;;;;;;17.98;9.95;;;10.00;99.90;;;;;;5074028;28;20096;-74
2022/07/30 09:02:40;;;;;;;17.77;8.80;;;10.00;99.90;;;;;;5073597;28;20086;-75
2022/07/30 09:05:09;;;;;;;17.05;9.00;;;10.00;99.90;;;;;;5072443;28;20449;-74
2022/07/30 09:07:37;;;;;;;14.05;6.30;;;10.00;99.90;;;;;;5072188;28;20021;-75
2022/07/30 09:10:06;;;;;;;19.23;11.25;;;9.90;99.90;;;;;;5072169;28;20079;-76
2022/07/30 09:12:40;;;;;;;11.50;6.38;;;9.90;99.90;;;;;;5073238;28;20073;-75
2022/07/30 09:15:14;;;;;;;11.82;6.38;;;9.90;99.90;;;;;;5073428;28;20086;-75
2022/07/30 09:18:01;;;;;;;16.13;10.65;;;9.90;99.90;;;;;;5071842;28;20021;-75
2022/07/30 09:20:33;;;;;;;13.77;7.28;;;9.90;99.90;;;;;;5073163;28;20101;-74
2022/07/30 09:23:03;;;;;;;20.53;11.40;;;9.90;99.90;;;;;;5073461;28;20020;-72
2022/07/30 09:25:39;;;;;;;14.05;8.80;;;9.80;99.90;;;;;;5073290;28;20416;-74
2022/07/30 09:28:08;;;;;;;12.30;7.15;;;9.80;99.90;;;;;;5071787;28;20484;-73
2022/07/30 09:30:47;;;;;;;17.38;10.95;;;9.80;99.90;;;;;;5073125;28;20077;-73
2022/07/30 09:33:37;;;;;;;15.95;9.38;;;9.70;99.90;;;;;;5072930;28;20035;-74
2022/07/30 09:36:09;;;;;;;15.73;8.05;;;9.70;99.90;;;;;;5072989;28;20361;-74
2022/07/30 09:38:47;;;;;;;17.25;9.07;;;9.60;99.90;;;;;;5072143;28;20070;-74
2022/07/30 09:41:18;;;;;;;15.65;9.93;;;9.50;99.90;;;;;;5071651;28;20374;-74
2022/07/30 09:43:50;;;;;;;21.33;10.10;;;9.50;99.90;;;;;;5055057;28;20056;-74
2022/07/30 09:46:18;;;;;;;13.90;8.07;;;9.60;99.90;;;;;;5072065;28;20025;-75
2022/07/30 09:48:45;;;;;;;17.55;9.85;;;9.40;99.90;;;;;;5073190;28;20095;-75
2022/07/30 09:51:13;;;;;;;19.35;11.50;;;9.40;99.90;;;;;;5072877;28;20108;-74
2022/07/30 09:54:00;;;;;;;20.10;10.75;;;9.40;99.90;;;;;;5073168;28;20024;-75
2022/07/30 09:56:29;;;;;;;15.90;8.88;;;9.40;99.90;;;;;;5074269;28;20039;-73
2022/07/30 09:58:57;;;;;;;20.20;10.77;;;9.40;99.90;;;;;;5076573;28;20063;-72
2022/07/30 10:01:25;;;;;;;15.93;9.60;;;9.30;99.90;;;;;;5076545;28;20036;-72
2022/07/30 10:03:53;;;;;;;17.13;8.95;;;9.30;99.90;;;;;;5076280;28;20028;-75
2022/07/30 10:06:34;;;;;;;18.58;9.95;;;9.30;99.90;;;;;;5076488;28;20435;-74
2022/07/30 10:09:01;;;;;;;15.70;9.65;;;9.20;99.90;;;;;;5058902;28;20393;-75
2022/07/30 10:11:29;;;;;;;16.70;10.55;;;9.20;99.90;;;;;;5076760;28;20024;-74
2022/07/30 10:13:59;;;;;;;16.88;10.13;;;9.20;99.90;;;;;;5074761;28;20122;-74
2022/07/30 10:16:28;;;;;;;16.10;9.60;;;9.20;99.90;;;;;;5074770;28;20480;-72
2022/07/30 10:18:59;;;;;;;14.13;9.48;;;9.10;99.90;;;;;;5074715;28;20421;-72
2022/07/30 10:21:27;;;;;;;15.73;9.65;;;9.10;99.90;;;;;;5057964;28;20102;-72
2022/07/30 10:23:55;;;;;;;18.27;10.05;;;9.10;99.90;;;;;;5074460;28;20024;-73
2022/07/30 10:26:23;;;;;;;17.10;9.90;;;9.00;99.90;;;;;;5075924;28;20063;-72
2022/07/30 10:28:51;;;;;;;12.52;7.85;;;9.00;99.90;;;;;;5041758;28;20033;-73
2022/07/30 10:31:19;;;;;;;16.13;10.20;;;8.90;99.90;;;;;;5074483;28;20036;-72
2022/07/30 10:33:47;;;;;;;14.85;8.32;;;8.90;99.90;;;;;;5075630;28;20110;-72
2022/07/30 10:36:14;;;;;;;14.57;8.68;;;8.90;99.90;;;;;;5074541;28;20392;-72
2022/07/30 10:38:44;;;;;;;15.02;9.15;;;8.80;99.90;;;;;;5074334;28;20017;-73
2022/07/30 10:41:33;;;;;;;17.15;9.73;;;8.80;99.90;;;;;;5074375;28;20120;-71
2022/07/30 10:44:00;;;;;;;14.73;9.80;;;8.80;99.90;;;;;;5076218;28;20087;-72
2022/07/30 10:47:03;;;;;;;15.55;9.38;;;8.80;99.90;;;;;;5075741;28;20074;-72
2022/07/30 10:49:30;;;;;;;13.85;8.48;;;8.70;99.90;;;;;;5074191;28;20033;-72
2022/07/30 10:51:59;;;;;;;18.85;9.05;;;8.70;99.90;;;;;;5073810;28;20407;-70
2022/07/30 10:54:38;;;;;;;15.60;9.55;;;8.60;99.90;;;;;;5074044;28;20112;-72
2022/07/30 10:57:20;;;;;;;14.10;9.48;;;8.60;99.90;;;;;;5073914;28;20021;-73
2022/07/30 10:59:57;;;;;;;16.70;9.43;;;8.60;99.90;;;;;;5057649;28;20087;-73
2022/07/30 11:02:30;;;;;;;15.32;9.60;;;8.60;99.90;;;;;;5074204;28;20043;-73
2022/07/30 11:05:27;;;;;;;17.10;9.85;;;8.60;99.90;;;;;;5075288;28;20030;-72
2022/07/30 11:08:34;;;;;;;20.98;12.27;;;8.50;99.90;;;;;;5065923;28;20064;-73
2022/07/30 11:11:05;;;;;;;20.38;13.32;;;8.50;99.90;;;;;;5073855;28;20112;-72
2022/07/30 11:13:53;;;;;;;23.33;13.70;;;8.50;99.90;;;;;;5074986;28;20099;-72
2022/07/30 11:16:45;;;;;;;21.75;14.45;;;8.50;99.90;;;;;;5074979;28;20020;-73
2022/07/30 11:19:17;;;;;;;23.00;13.77;;;8.50;99.90;;;;;;5073380;28;20017;-72
2022/07/30 11:21:49;;;;;;;19.90;13.30;;;8.50;99.90;;;;;;5075078;28;20024;-73
2022/07/30 11:24:42;;;;;;;22.13;11.65;;;8.50;99.90;;;;;;5074717;28;20052;-72
2022/07/30 11:27:30;;;;;;;20.08;12.02;;;8.50;99.90;;;;;;5067166;28;20040;-73
2022/07/30 11:29:58;;;;;;;16.92;12.40;;;8.50;99.90;;;;;;5074703;28;20095;-75
2022/07/30 11:32:29;;;;;;;19.17;11.57;;;8.40;99.90;;;;;;5056640;28;20455;-71
2022/07/30 11:35:24;;;;;;;15.70;10.07;;;8.40;99.90;;;;;;5073121;28;20020;-71
2022/07/30 11:37:58;;;;;;;14.05;9.77;;;8.40;99.90;;;;;;5073235;28;20027;-72
2022/07/30 11:40:31;;;;;;;15.05;9.55;;;8.40;99.90;;;;;;5073086;28;20043;-72
2022/07/30 11:43:31;;;;;;;15.82;8.80;;;8.40;99.90;;;;;;5074474;28;20031;-72
2022/07/30 11:46:05;;;;;;;13.90;9.17;;;8.50;99.90;;;;;;5074826;28;20035;-70
2022/07/30 11:48:34;;;;;;;16.70;8.73;;;8.50;99.90;;;;;;5073059;28;20622;-70
2022/07/30 11:51:02;;;;;;;14.93;8.63;;;8.50;99.90;;;;;;5073053;28;20101;-72
2022/07/30 11:53:29;;;;;;;12.63;8.40;;;8.60;99.90;;;;;;5072603;28;20052;-71
2022/07/30 11:55:59;;;;;;;11.60;7.00;;;8.60;99.90;;;;;;5072801;28;20028;-73
2022/07/30 11:58:31;;;;;;;12.95;7.88;;;8.60;99.90;;;;;;5072824;28;20017;-72
2022/07/30 12:01:03;;;;;;;13.10;7.05;;;8.60;99.90;;;;;;5072897;28;20107;-73
2022/07/30 12:03:31;;;;;;;9.07;6.95;;;8.60;99.90;;;;;;5072614;28;20032;-73
2022/07/30 12:06:08;;;;;;;11.95;7.10;;;8.60;99.90;;;;;;5072481;28;20029;-73
2022/07/30 12:08:43;;;;;;;12.43;7.10;;;8.60;99.90;;;;;;5074479;28;20020;-73
2022/07/30 12:11:12;;;;;;;10.00;7.03;;;8.60;99.90;;;;;;5056294;28;20178;-73
2022/07/30 12:13:42;;;;;;;13.35;7.63;;;8.60;99.90;;;;;;5072594;28;20043;-73
2022/07/30 12:16:10;;;;;;;;;;;8.60;99.90;;;;;;5074517;28;20039;-73
2022/07/30 12:18:37;;;;;;;13.13;7.07;;;8.60;99.90;;;;;;5071766;28;19995;-72
2022/07/30 12:21:14;;;;;;;12.10;7.25;;;8.60;99.90;;;;;;5073644;28;20023;-73
2022/07/30 12:23:52;;;;;;;14.20;7.28;;;8.60;99.90;;;;;;5073684;28;20032;-73
2022/07/30 12:26:28;;;;;;;12.90;6.95;;;8.60;99.90;;;;;;5072330;28;20074;-73
2022/07/30 12:29:02;;;;;;;12.25;6.50;;;8.70;99.90;;;;;;5072305;28;20025;-72
2022/07/30 12:31:32;;;;;;;11.00;6.15;;;8.60;99.90;;;;;;5072363;28;20503;-72
2022/07/30 12:34:00;;;;;;;9.98;6.20;;;8.50;99.90;;;;;;5073285;28;20049;-73
2022/07/30 12:36:28;;;;;;;11.18;6.15;;;8.60;99.90;;;;;;5055652;28;20033;-73
2022/07/30 12:38:56;;;;;;;11.63;5.68;;;8.60;99.90;;;;;;5073828;28;20460;-74
2022/07/30 12:41:41;;;;;;;11.65;5.13;;;8.60;99.90;;;;;;5073592;28;20031;-73
2022/07/30 12:44:09;;;;;;;9.50;5.18;;;8.60;99.90;;;;;;5073731;28;20016;-72
2022/07/30 12:46:40;;;;;;;10.95;5.32;;;8.60;99.90;;;;;;5073401;28;20518;-74
2022/07/30 12:49:08;;;;;;;8.95;5.43;;;8.70;99.90;;;;;;5072145;28;20028;-71
2022/07/30 12:51:53;;;;;;;12.35;5.47;;;8.70;99.90;;;;;;5073133;28;20139;-73
2022/07/30 12:54:21;;;;;;;8.20;5.18;;;8.70;99.90;;;;;;5072053;28;20048;-73
2022/07/30 12:56:59;;;;;;;9.15;5.10;;;8.60;99.90;;;;;;5072053;28;20031;-73
2022/07/30 12:59:28;;;;;;;10.82;6.03;;;8.60;99.90;;;;;;5073308;28;20082;-73
2022/07/30 13:01:59;;;;;;;8.20;5.35;;;8.60;99.90;;;;;;5073495;28;20028;-73